Time;durP1;ratioP1;P1;durP2;ratioP2;P2;SDS_P1;SDS_P2;PMS_P1;PMS_P2;Temp;Humidity;BMP_temperature;BMP_pressure;BME280_temperature;BME280_humidity;BME280_pressure;Samples;Min_cycle;Max_cycle;Signal;HPM_P1;HPM_P2
2022/08/13 00:00:52;;;;;;;8.53;3.70;;;;;;;17.72;56.12;98882.81;1735306;83;21075;-82
2022/08/13 00:03:19;;;;;;;6.47;2.80;;;;;;;17.67;56.86;98883.09;1735154;83;21034;-83
2022/08/13 00:05:46;;;;;;;4.72;2.40;;;;;;;17.64;58.94;98882.77;1709354;83;21020;-83
2022/08/13 00:08:12;;;;;;;5.08;2.77;;;;;;;17.65;58.96;98884.48;1708758;83;21009;-82
2022/08/13 00:10:40;;;;;;;7.15;2.87;;;;;;;17.65;58.95;98881.86;1720285;83;21078;-82
2022/08/13 00:13:12;;;;;;;5.15;3.08;;;;;;;17.63;57.50;98878.47;1692950;83;21097;-81
2022/08/13 00:15:39;;;;;;;8.30;3.27;;;;;;;17.58;57.07;98876.56;1719837;83;21039;-81
2022/08/13 00:18:10;;;;;;;7.85;3.00;;;;;;;17.53;59.84;98883.00;1720624;83;21581;-82
2022/08/13 00:20:45;;;;;;;7.33;3.08;;;;;;;17.49;58.99;98879.73;1713443;83;21078;-82
2022/08/13 00:23:14;;;;;;;6.65;2.90;;;;;;;17.46;59.77;98873.32;1736066;82;21097;-81
2022/08/13 00:25:43;;;;;;;5.62;2.87;;;;;;;17.44;59.72;98873.41;1737806;82;21009;-81
2022/08/13 00:28:11;;;;;;;4.70;2.85;;;;;;;17.43;60.00;98880.08;1737060;82;21003;-81
2022/08/13 00:30:38;;;;;;;5.40;2.90;;;;;;;17.35;58.67;98880.52;1692754;84;20994;-81
2022/08/13 00:33:12;;;;;;;6.55;2.52;;;;;;;17.32;59.38;98876.73;1712328;83;21613;-82
2022/08/13 00:35:41;;;;;;;4.25;2.40;;;;;;;17.33;60.31;98874.94;1716708;83;20980;-82
2022/08/13 00:38:18;;;;;;;4.78;2.62;;;;;;;17.35;60.84;98880.95;1710857;83;21124;-83
2022/08/13 00:40:52;;;;;;;8.40;2.80;;;;;;;17.35;61.11;98871.31;1736586;82;21018;-83
2022/08/13 00:43:19;;;;;;;5.90;2.60;;;;;;;17.37;62.00;98873.83;1708933;84;20962;-83
2022/08/13 00:45:47;;;;;;;9.48;2.83;;;;;;;17.37;61.00;98867.27;1740139;82;20969;-84
2022/08/13 00:51:00;;;;;;;5.75;2.70;;;;;;;17.44;61.99;98868.62;1738560;82;20974;-82
2022/08/13 00:53:30;;;;;;;6.10;3.22;;;;;;;17.49;61.80;98867.91;1699110;83;21058;-82
2022/08/13 00:55:58;;;;;;;4.65;2.90;;;;;;;17.48;60.80;98865.72;1732043;83;21026;-83
2022/08/13 00:58:27;;;;;;;6.50;2.75;;;;;;;17.48;61.34;98876.70;1705764;83;21472;-79
2022/08/13 01:00:57;;;;;;;8.18;2.72;;;;;;;17.44;60.24;98864.67;1732679;83;21053;-83
2022/08/13 01:03:29;;;;;;;7.37;2.98;;;;;;;17.40;60.30;98871.88;1726608;82;21014;-81
2022/08/13 01:05:59;;;;;;;9.28;3.55;;;;;;;17.36;60.96;98869.05;1675945;84;21023;-82
2022/08/13 01:08:31;;;;;;;5.15;2.80;;;;;;;17.28;60.79;98860.28;1732314;82;21009;-82
2022/08/13 01:11:02;;;;;;;7.80;3.62;;;;;;;17.25;61.37;98865.73;1721359;83;21058;-82
2022/08/13 01:13:33;;;;;;;6.65;2.67;;;;;;;17.19;61.20;98862.13;1703774;83;20988;-82
2022/08/13 01:16:04;;;;;;;8.03;2.70;;;;;;;17.13;61.18;98864.23;1734312;83;21105;-82
2022/08/13 01:18:36;;;;;;;5.37;2.72;;;;;;;17.07;61.95;98860.20;1733793;83;21694;-83
2022/08/13 01:21:17;;;;;;;5.58;2.55;;;;;;;17.03;61.44;98862.58;1746377;80;21015;-82
2022/08/13 01:23:48;;;;;;;4.25;2.25;;;;;;;16.96;61.67;98858.62;1733985;81;21036;-83
2022/08/13 01:26:17;;;;;;;8.85;2.90;;;;;;;16.87;60.81;98867.83;1755135;81;21063;-83
2022/08/13 01:28:46;;;;;;;8.93;2.90;;;;;;;16.81;61.82;98861.56;1752101;81;20987;-83
2022/08/13 01:31:16;;;;;;;5.50;3.10;;;;;;;16.76;62.41;98867.08;1742582;82;21055;-81
2022/08/13 01:33:45;;;;;;;6.45;3.50;;;;;;;16.71;60.91;98869.09;1749841;82;21075;-82
2022/08/13 01:36:12;;;;;;;8.05;3.47;;;;;;;16.59;61.79;98865.81;1755383;81;21594;-83
2022/08/13 01:38:41;;;;;;;5.78;3.12;;;;;;;16.53;62.29;98858.27;1754547;82;21010;-83
2022/08/13 01:41:09;;;;;;;7.03;3.25;;;;;;;16.53;63.25;98867.45;1735642;82;20999;-81
2022/08/13 01:43:40;;;;;;;10.45;2.83;;;;;;;16.49;63.43;98858.45;1755052;82;20987;-84
2022/08/13 01:46:10;;;;;;;5.47;3.65;;;;;;;16.48;63.96;98857.22;1746258;82;21026;-83
2022/08/13 01:51:36;;;;;;;11.60;4.90;;;;;;;16.43;62.84;98854.84;1736878;82;21023;-83
2022/08/13 01:54:05;;;;;;;9.33;4.00;;;;;;;16.40;63.94;98850.22;1757249;82;21010;-83
2022/08/13 01:56:32;;;;;;;6.20;3.35;;;;;;;16.37;63.76;98845.95;1745022;81;21061;-84
2022/08/13 01:59:02;;;;;;;5.50;2.70;;;;;;;16.35;63.27;98846.50;1726267;82;20991;-82
2022/08/13 02:01:30;;;;;;;7.25;2.83;;;;;;;16.31;64.73;98846.28;1721468;82;20972;-82
2022/08/13 02:03:58;;;;;;;4.25;2.40;;;;;;;16.28;62.99;98843.84;1723057;82;20995;-83
2022/08/13 02:06:29;;;;;;;4.53;2.25;;;;;;;16.25;62.88;98845.30;1726866;81;21071;-83
2022/08/13 02:09:00;;;;;;;10.48;6.17;;;;;;;16.23;63.11;98840.59;1743512;82;21034;-82
2022/08/13 02:11:32;;;;;;;7.65;3.50;;;;;;;16.20;63.74;98836.84;1754242;82;20983;-82
2022/08/13 02:14:02;;;;;;;3.92;2.20;;;;;;;16.21;62.85;98841.98;1728239;82;20999;-82
2022/08/13 02:16:31;;;;;;;7.53;2.12;;;;;;;16.21;63.24;98834.11;1755215;82;21006;-83
2022/08/13 02:18:58;;;;;;;7.05;3.92;;;;;;;16.23;62.81;98840.59;1734800;82;21066;-82
2022/08/13 02:21:30;;;;;;;6.15;3.02;;;;;;;16.23;63.06;98840.59;1765466;80;21042;-83
2022/08/13 02:23:57;;;;;;;8.18;3.08;;;;;;;16.24;63.22;98837.06;1740969;81;21082;-81
2022/08/13 02:26:24;;;;;;;7.08;3.60;;;;;;;16.19;63.75;98838.59;1757621;81;21019;-82
2022/08/13 02:28:52;;;;;;;5.53;3.10;;;;;;;16.15;63.64;98834.91;1761698;81;20924;-83
2022/08/13 02:31:19;;;;;;;5.42;2.72;;;;;;;16.09;63.64;98847.42;1754502;81;20998;-83
2022/08/13 02:33:46;;;;;;;5.28;3.17;;;;;;;16.07;63.99;98841.86;1769940;81;21003;-82
2022/08/13 02:36:14;;;;;;;7.08;2.90;;;;;;;16.04;63.88;98833.70;1736501;83;21077;-82
2022/08/13 02:38:45;;;;;;;6.08;3.10;;;;;;;16.02;65.02;98832.09;1721470;83;21045;-83
2022/08/13 02:43:59;;;;;;;7.10;3.05;;;;;;;15.98;63.13;98827.45;1721886;83;21078;-83
2022/08/13 02:46:27;;;;;;;9.85;3.70;;;;;;;15.95;64.29;98835.47;1721981;83;21073;-82
2022/08/13 02:48:58;;;;;;;8.68;3.42;;;;;;;15.98;65.09;98835.33;1767774;81;21030;-83
2022/08/13 02:51:24;;;;;;;10.63;3.08;;;;;;;15.99;64.60;98835.69;1725571;83;21032;-82
2022/08/13 02:53:52;;;;;;;4.83;2.55;;;;;;;15.98;63.18;98838.41;1677595;86;21495;-81
2022/08/13 02:56:19;;;;;;;3.77;2.45;;;;;;;15.95;63.40;98840.70;1693107;85;21050;-82
2022/08/13 02:58:45;;;;;;;3.77;2.25;;;;;;;15.89;63.93;98847.58;1692986;83;20987;-84
2022/08/13 03:01:14;;;;;;;6.72;2.70;;;;;;;15.87;64.32;98842.41;1761290;81;20992;-83
2022/08/13 03:03:41;;;;;;;5.90;2.80;;;;;;;15.83;64.68;98837.41;1754499;81;20990;-83
2022/08/13 03:06:08;;;;;;;8.25;3.27;;;;;;;15.82;64.44;98839.19;1766384;81;21019;-83
2022/08/13 03:08:37;;;;;;;9.83;4.90;;;;;;;15.81;63.73;98844.03;1752870;81;21555;-81
2022/08/13 03:11:04;;;;;;;5.92;3.12;;;;;;;15.82;64.04;98842.28;1751583;81;21005;-82
2022/08/13 03:13:36;;;;;;;5.25;2.52;;;;;;;15.82;64.10;98835.73;1759997;81;21022;-83
2022/08/13 03:16:04;;;;;;;4.03;2.33;;;;;;;15.83;63.81;98836.09;1769841;81;21019;-83
2022/08/13 03:18:31;;;;;;;9.58;3.55;;;;;;;15.83;63.48;98840.03;1769307;81;21097;-83
2022/08/13 03:20:58;;;;;;;10.60;3.60;;;;;;;15.84;63.42;98837.34;1762271;81;21104;-83
2022/08/13 03:23:27;;;;;;;6.47;3.05;;;;;;;15.84;64.34;98839.12;1758165;81;21057;-83
2022/08/13 03:25:53;;;;;;;5.55;3.20;;;;;;;15.87;64.14;98844.19;1736164;83;21044;-83
2022/08/13 03:28:22;;;;;;;5.97;2.92;;;;;;;15.87;65.23;98840.25;1736483;82;21006;-82
2022/08/13 03:30:48;;;;;;;6.12;3.20;;;;;;;15.87;64.54;98840.25;1701672;83;21542;-82
2022/08/13 03:33:17;;;;;;;5.20;3.00;;;;;;;15.87;66.88;98840.25;1704186;83;21045;-82
2022/08/13 03:35:44;;;;;;;5.85;3.40;;;;;;;15.88;66.26;98832.32;1734186;83;21043;-84
2022/08/13 03:38:15;;;;;;;4.40;2.95;;;;;;;15.92;66.08;98830.39;1736357;83;21009;-83
2022/08/13 03:41:00;;;;;;;10.70;3.12;;;;;;;15.95;66.94;98838.56;1733881;83;21028;-83
2022/08/13 03:43:30;;;;;;;6.60;2.80;;;;;;;15.98;66.58;98832.70;1735359;83;21007;-83
2022/08/13 03:45:58;;;;;;;4.90;2.67;;;;;;;15.91;66.09;98830.00;1721306;83;21057;-83
2022/08/13 03:48:26;;;;;;;8.88;2.60;;;;;;;15.87;66.48;98826.67;1734935;83;21005;-83
2022/08/13 03:50:53;;;;;;;5.00;2.87;;;;;;;15.90;67.28;98827.00;1698951;83;21051;-81
2022/08/13 03:53:20;;;;;;;5.62;2.55;;;;;;;15.97;67.08;98824.44;1763328;81;21007;-82
2022/08/13 03:55:48;;;;;;;6.92;2.60;;;;;;;16.05;66.92;98827.98;1746212;81;20999;-83
2022/08/13 03:58:15;;;;;;;4.97;2.70;;;;;;;16.12;66.10;98830.68;1746783;81;20966;-83
2022/08/13 04:00:47;;;;;;;7.17;2.70;;;;;;;16.17;66.21;98829.95;1764010;81;21014;-83
2022/08/13 04:03:22;;;;;;;7.40;2.80;;;;;;;16.25;66.05;98829.12;1769982;81;20979;-82
2022/08/13 04:05:57;;;;;;;5.85;2.80;;;;;;;16.30;65.58;98830.18;1769675;81;21061;-83
2022/08/13 04:08:35;;;;;;;10.40;3.22;;;;;;;16.34;66.74;98827.77;1740167;81;20995;-81
2022/08/13 04:11:06;;;;;;;10.95;3.33;;;;;;;16.37;66.71;98824.97;1744153;81;21107;-81
2022/08/13 04:13:39;;;;;;;6.25;3.12;;;;;;;16.41;66.71;98828.28;1767643;81;21026;-83
2022/08/13 04:16:10;;;;;;;7.45;2.72;;;;;;;16.41;66.21;98827.84;1770006;81;20982;-83
2022/08/13 04:18:40;;;;;;;16.70;4.12;;;;;;;16.43;67.13;98825.98;1763513;81;21054;-82
2022/08/13 04:21:10;;;;;;;9.58;3.15;;;;;;;16.44;67.62;98827.66;1753435;81;21030;-82
2022/08/13 04:23:39;;;;;;;11.18;3.40;;;;;;;16.46;66.83;98833.67;1759321;81;21015;-83
2022/08/13 04:26:08;;;;;;;8.75;3.95;;;;;;;16.51;67.15;98833.42;1737308;82;21012;-82
2022/08/13 04:28:38;;;;;;;5.95;3.10;;;;;;;16.57;66.59;98829.63;1736949;83;21033;-83
2022/08/13 04:31:05;;;;;;;9.90;3.00;;;;;;;16.61;66.07;98823.28;1715892;83;21045;-83
2022/08/13 04:33:33;;;;;;;4.80;3.30;;;;;;;16.61;66.46;98828.52;1717216;83;21022;-82
2022/08/13 04:36:00;;;;;;;7.67;3.30;;;;;;;16.65;67.06;98827.42;1702967;83;21041;-83
2022/08/13 04:38:27;;;;;;;9.10;3.27;;;;;;;16.67;66.86;98821.63;1771100;81;21514;-83
2022/08/13 04:40:53;;;;;;;7.97;3.70;;;;;;;16.69;66.47;98829.83;1737023;83;21009;-84
2022/08/13 04:43:21;;;;;;;8.70;3.60;;;;;;;16.72;65.55;98822.23;1769670;81;21038;-82
2022/08/13 04:45:47;;;;;;;6.90;3.50;;;;;;;16.69;65.58;98827.64;1738092;83;21012;-84
2022/08/13 04:48:15;;;;;;;5.67;3.05;;;;;;;16.71;65.79;98820.53;1737478;81;21024;-83
2022/08/13 04:50:45;;;;;;;6.42;3.33;;;;;;;16.74;65.66;98822.16;1737286;83;21063;-83
2022/08/13 04:53:32;;;;;;;8.80;3.33;;;;;;;16.78;65.83;98821.90;1737402;83;21039;-83
2022/08/13 04:56:01;;;;;;;5.25;3.15;;;;;;;16.85;65.36;98821.12;1735797;83;21023;-83
2022/08/13 04:58:35;;;;;;;6.62;3.00;;;;;;;16.93;65.08;98816.76;1767747;81;21022;-84
2022/08/13 05:01:06;;;;;;;6.87;2.80;;;;;;;17.02;64.78;98814.95;1770701;81;21031;-84
2022/08/13 05:03:33;;;;;;;7.00;2.90;;;;;;;17.13;64.54;98821.77;1767604;81;21122;-84
2022/08/13 05:06:00;;;;;;;4.80;3.00;;;;;;;17.23;64.33;98815.05;1767836;81;21058;-83
2022/08/13 05:08:27;;;;;;;5.25;3.20;;;;;;;17.33;63.92;98818.45;1737190;81;21045;-84
2022/08/13 05:10:54;;;;;;;10.13;3.47;;;;;;;17.42;63.89;98816.62;1734032;83;21005;-84
2022/08/13 05:13:33;;;;;;;8.05;3.55;;;;;;;17.53;63.79;98810.73;1705275;84;21052;-85
2022/08/13 05:16:04;;;;;;;6.72;3.40;;;;;;;17.63;63.49;98814.06;1737279;83;21049;-84
2022/08/13 05:18:33;;;;;;;9.05;3.30;;;;;;;17.76;64.13;98806.77;1712473;82;21129;-83
2022/08/13 05:21:04;;;;;;;7.47;3.25;;;;;;;17.87;63.91;98810.96;1707590;84;21011;-84
2022/08/13 05:23:34;;;;;;;7.42;3.77;;;;;;;17.97;64.28;98807.31;1705477;83;21046;-83
2022/08/13 05:26:01;;;;;;;9.83;3.72;;;;;;;18.06;64.01;98812.00;1692889;83;21052;-83
2022/08/13 05:28:30;;;;;;;7.25;3.77;;;;;;;18.19;63.89;98810.80;1673282;84;21054;-80
2022/08/13 05:30:58;;;;;;;10.82;3.60;;;;;;;18.28;63.67;98807.14;1685863;84;21606;-83
2022/08/13 05:33:28;;;;;;;5.87;3.45;;;;;;;18.37;63.63;98802.25;1707410;84;21026;-84
2022/08/13 05:35:58;;;;;;;5.75;3.50;;;;;;;18.49;63.65;98810.70;1673476;85;21044;-82
2022/08/13 05:38:27;;;;;;;5.92;3.27;;;;;;;18.64;63.59;98803.62;1693838;84;21013;-83
2022/08/13 05:41:07;;;;;;;6.62;3.20;;;;;;;18.80;63.22;98805.71;1693759;83;21072;-84
2022/08/13 05:43:38;;;;;;;5.78;3.12;;;;;;;18.94;63.18;98811.42;1675650;86;21061;-84
2022/08/13 05:46:09;;;;;;;6.65;3.20;;;;;;;19.09;62.70;98809.57;1692231;83;21017;-83
2022/08/13 05:48:43;;;;;;;6.97;3.25;;;;;;;19.19;61.86;98805.39;1677842;85;21062;-83
2022/08/13 05:51:12;;;;;;;8.63;3.20;;;;;;;19.28;60.95;98804.80;1705216;83;21058;-83
2022/08/13 05:53:40;;;;;;;6.92;3.20;;;;;;;19.37;60.46;98800.70;1692508;85;21062;-84
2022/08/13 05:56:07;;;;;;;4.45;2.37;;;;;;;19.40;59.29;98802.31;1679643;85;21048;-84
2022/08/13 05:58:34;;;;;;;5.12;3.10;;;;;;;19.50;59.27;98798.11;1690116;84;20985;-83
2022/08/13 06:03:46;;;;;;;6.65;2.85;;;;;;;19.57;58.56;98795.42;1675001;84;20991;-83
2022/08/13 06:06:18;;;;;;;11.43;3.42;;;;;;;19.70;58.29;98793.30;1692091;83;21103;-83
2022/08/13 06:08:45;;;;;;;6.90;3.95;;;;;;;19.82;58.46;98795.14;1675476;86;21087;-83
2022/08/13 06:11:16;;;;;;;5.90;3.52;;;;;;;19.94;58.52;98796.09;1673551;84;21546;-83
2022/08/13 06:13:48;;;;;;;5.15;3.27;;;;;;;20.08;58.25;98796.47;1691507;83;21003;-83
2022/08/13 06:16:20;;;;;;;5.15;3.22;;;;;;;20.20;57.94;98796.45;1716480;83;20987;-84
2022/08/13 06:18:48;;;;;;;5.87;3.12;;;;;;;20.36;57.61;98796.23;1692135;83;21067;-83
2022/08/13 06:21:22;;;;;;;6.25;3.22;;;;;;;20.46;57.24;98788.50;1672396;84;21532;-83
2022/08/13 06:23:48;;;;;;;4.80;3.00;;;;;;;20.57;56.54;98793.88;1718349;83;21597;-83
2022/08/13 06:26:19;;;;;;;8.75;2.90;;;;;;;20.61;55.77;98784.81;1733598;83;22160;-83
2022/08/13 06:28:45;;;;;;;4.53;2.85;;;;;;;20.66;55.65;98782.67;1731074;83;21285;-82
2022/08/13 06:31:16;;;;;;;7.55;3.50;;;;;;;20.77;55.80;98777.95;1718047;83;21046;-82
2022/08/13 06:33:45;;;;;;;7.25;3.27;;;;;;;20.89;55.69;98785.92;1685391;84;21605;-82
2022/08/13 06:36:15;;;;;;;8.00;3.15;;;;;;;21.00;55.55;98780.23;1720612;83;21083;-83
2022/08/13 06:38:46;;;;;;;6.20;3.20;;;;;;;21.13;55.25;98772.27;1698682;83;21477;-82
2022/08/13 06:41:13;;;;;;;6.90;3.27;;;;;;;21.16;54.87;98778.62;1749576;81;21029;-83
2022/08/13 06:43:44;;;;;;;8.33;3.87;;;;;;;21.26;54.83;98767.73;1768667;81;20959;-83
2022/08/13 06:46:13;;;;;;;8.98;4.20;;;;;;;21.35;54.91;98774.64;1748405;81;20995;-83
2022/08/13 06:48:40;;;;;;;7.83;4.55;;;;;;;21.41;54.66;98771.05;1735198;81;21015;-83
2022/08/13 06:51:10;;;;;;;7.35;4.25;;;;;;;21.48;54.56;98768.80;1735375;83;20989;-82
2022/08/13 06:53:43;;;;;;;10.48;4.72;;;;;;;21.54;54.43;98772.80;1733429;83;21047;-83
2022/08/13 06:56:16;;;;;;;9.10;4.37;;;;;;;21.58;54.38;98772.44;1735139;83;21087;-82
2022/08/13 06:58:46;;;;;;;7.17;4.22;;;;;;;21.65;54.21;98773.67;1735246;83;21073;-83
2022/08/13 07:01:19;;;;;;;8.05;4.17;;;;;;;21.80;54.25;98768.16;1699439;83;21006;-83
2022/08/13 07:03:47;;;;;;;9.35;4.85;;;;;;;21.84;54.26;98764.31;1768992;81;20975;-83
2022/08/13 07:06:19;;;;;;;8.50;4.83;;;;;;;21.95;54.06;98765.67;1735568;81;21054;-83
2022/08/13 07:08:47;;;;;;;10.98;5.00;;;;;;;21.97;54.22;98767.71;1735930;83;21084;-84
2022/08/13 07:11:22;;;;;;;10.93;4.65;;;;;;;22.08;54.27;98766.87;1736590;81;21040;-83
2022/08/13 07:13:55;;;;;;;11.70;5.58;;;;;;;22.14;54.05;98761.09;1708585;84;21081;-83
2022/08/13 07:16:24;;;;;;;11.28;4.90;;;;;;;22.17;53.95;98756.06;1713483;82;21025;-83
2022/08/13 07:18:52;;;;;;;10.25;5.40;;;;;;;22.23;54.06;98747.14;1770246;81;21050;-83
2022/08/13 07:21:22;;;;;;;11.18;5.42;;;;;;;22.29;54.10;98751.16;1769306;81;21561;-83
2022/08/13 07:23:51;;;;;;;13.18;6.35;;;;;;;22.38;54.16;98749.56;1736813;80;21011;-83
2022/08/13 07:26:19;;;;;;;11.33;5.70;;;;;;;22.48;54.12;98757.14;1704338;84;21034;-83
2022/08/13 07:28:49;;;;;;;12.03;5.80;;;;;;;22.54;54.37;98754.03;1688998;85;21483;-82
2022/08/13 07:31:21;;;;;;;8.23;5.37;;;;;;;22.65;54.21;98755.80;1684777;85;21023;-83
2022/08/13 07:33:51;;;;;;;8.00;4.85;;;;;;;22.75;53.93;98753.25;1686942;85;20999;-83
2022/08/13 07:36:21;;;;;;;7.20;4.80;;;;;;;22.91;53.76;98748.88;1701224;84;21542;-83
2022/08/13 07:38:49;;;;;;;6.55;4.03;;;;;;;22.97;53.09;98755.00;1728678;82;20988;-82
2022/08/13 07:41:15;;;;;;;7.60;3.95;;;;;;;23.07;52.65;98757.28;1709923;83;21471;-83
2022/08/13 07:43:44;;;;;;;5.47;3.75;;;;;;;23.16;52.38;98752.56;1692738;84;21000;-83
2022/08/13 07:46:15;;;;;;;5.47;3.37;;;;;;;23.32;52.41;98749.97;1703856;84;21074;-83
2022/08/13 07:48:51;;;;;;;7.50;3.95;;;;;;;23.42;50.28;98748.23;1690547;85;21343;-83
2022/08/13 07:51:24;;;;;;;7.85;3.30;;;;;;;23.50;50.98;98751.56;1714337;83;21010;-83
2022/08/13 07:53:52;;;;;;;9.60;4.37;;;;;;;23.57;50.72;98752.22;1735958;83;21046;-83
2022/08/13 07:56:31;;;;;;;6.40;3.70;;;;;;;23.67;50.76;98750.13;1705040;84;21515;-82
2022/08/13 07:59:11;;;;;;;6.42;3.87;;;;;;;23.77;50.58;98735.96;1690820;84;21060;-82
2022/08/13 08:01:54;;;;;;;9.08;4.45;;;;;;;23.90;50.49;98738.42;1735521;83;21537;-83
2022/08/13 08:04:30;;;;;;;5.55;3.67;;;;;;;23.96;50.23;98739.72;1737436;83;20979;-83
2022/08/13 08:06:55;;;;;;;5.78;3.92;;;;;;;23.94;49.81;98735.86;1705141;84;21043;-82
2022/08/13 08:09:29;;;;;;;9.10;4.25;;;;;;;23.98;49.82;98736.44;1688345;84;21598;-82
2022/08/13 08:14:50;;;;;;;8.48;4.17;;;;;;;24.15;49.68;98726.53;1705288;84;21055;-83
2022/08/13 08:17:18;;;;;;;8.33;4.30;;;;;;;24.27;49.51;98727.24;1672267;84;21075;-82
2022/08/13 08:19:50;;;;;;;10.65;5.37;;;;;;;24.25;49.51;98722.55;1728980;81;21106;-83
2022/08/13 08:22:17;;;;;;;10.83;5.30;;;;;;;24.29;49.76;98718.69;1740758;81;21000;-82
2022/08/13 08:24:50;;;;;;;8.35;5.37;;;;;;;24.39;49.76;98720.02;1767206;81;21021;-80
2022/08/13 08:27:19;;;;;;;11.95;5.55;;;;;;;24.42;49.82;98716.61;1730098;81;20997;-81
2022/08/13 08:29:48;;;;;;;11.22;5.35;;;;;;;24.46;50.04;98715.85;1690726;83;21120;-81
2022/08/13 08:32:15;;;;;;;13.83;6.05;;;;;;;24.55;49.57;98714.22;1727926;81;21021;-82
2022/08/13 08:34:46;;;;;;;10.63;4.92;;;;;;;24.57;49.75;98712.26;1709354;83;21040;-82
2022/08/13 08:42:35;;;;;;;9.70;5.37;;;;;;;24.64;49.73;98710.75;1715636;83;21034;-82
2022/08/13 08:42:38;;;;;;;8.83;5.65;;;;;;;24.89;49.59;98703.20;1762111;80;21107;-84
2022/08/13 08:45:14;;;;;;;10.90;5.37;;;;;;;24.95;49.65;98694.70;1756689;80;21060;-83
2022/08/13 08:47:37;;;;;;;9.58;4.55;;;;;;;25.08;49.38;98689.92;1762805;80;20986;-82
2022/08/13 08:50:07;;;;;;;8.45;5.37;;;;;;;25.14;49.02;98686.69;1751029;80;21426;-83
2022/08/13 08:55:19;;;;;;;8.73;5.00;;;;;;;25.33;48.62;98685.88;1758351;80;21482;-81
2022/08/13 08:57:47;;;;;;;7.05;4.12;;;;;;;25.32;48.55;98680.19;1756522;81;20994;-81
2022/08/13 09:00:18;;;;;;;7.42;4.90;;;;;;;25.40;48.34;98671.00;1733943;80;20987;-82
2022/08/13 09:02:51;;;;;;;12.82;5.08;;;;;;;25.49;48.49;98673.81;1752166;80;21030;-83
2022/08/13 09:05:21;;;;;;;6.67;4.15;;;;;;;25.64;48.61;98667.02;1754182;81;21009;-81
2022/08/13 09:07:49;;;;;;;7.22;4.30;;;;;;;25.83;48.37;98671.95;1744967;81;21026;-79
2022/08/13 09:10:20;;;;;;;6.50;4.40;;;;;;;25.94;47.73;98659.80;1753883;80;21030;-80
2022/08/13 09:12:50;;;;;;;7.17;4.87;;;;;;;26.07;47.68;98664.80;1741966;81;21054;-81
2022/08/13 09:15:21;;;;;;;6.85;4.08;;;;;;;26.16;47.50;98657.23;1719351;83;21028;-81
2022/08/13 09:17:49;;;;;;;7.28;4.30;;;;;;;26.19;45.93;98657.78;1714703;82;21018;-81
2022/08/13 09:20:24;;;;;;;9.25;4.50;;;;;;;26.27;46.87;98653.05;1757283;80;21408;-81
2022/08/13 09:23:07;;;;;;;7.90;4.70;;;;;;;26.33;46.87;98648.95;1747205;80;21054;-82
2022/08/13 09:25:35;;;;;;;8.30;3.80;;;;;;;26.47;46.88;98648.93;1751269;81;20993;-81
2022/08/13 09:28:03;;;;;;;8.55;4.30;;;;;;;26.58;45.15;98650.92;1762205;80;21574;-81
2022/08/13 09:30:32;;;;;;;6.28;3.95;;;;;;;26.63;45.43;98650.45;1758543;80;21018;-81
2022/08/13 09:33:02;;;;;;;11.73;4.47;;;;;;;26.73;45.90;98640.55;1751965;80;21046;-81
2022/08/13 09:35:32;;;;;;;7.50;4.37;;;;;;;26.84;45.90;98631.97;1753851;80;20979;-81
2022/08/13 09:38:03;;;;;;;8.53;4.20;;;;;;;27.01;45.68;98630.29;1730961;81;20993;-80
2022/08/13 09:40:32;;;;;;;8.38;4.40;;;;;;;27.16;45.50;98627.41;1720266;83;21027;-80
2022/08/13 09:43:07;;;;;;;8.95;4.55;;;;;;;27.24;44.97;98626.16;1721955;83;21041;-80
2022/08/13 09:45:34;;;;;;;6.15;4.00;;;;;;;27.35;44.94;98623.72;1705668;82;21621;-80
2022/08/13 09:48:08;;;;;;;7.47;4.20;;;;;;;27.48;44.79;98627.31;1708455;83;21083;-81
2022/08/13 09:50:30;;;;;;;6.78;3.85;;;;;;;27.63;44.46;98628.88;1708689;82;21015;-82
2022/08/13 09:52:57;;;;;;;8.03;4.45;;;;;;;27.78;44.22;98615.28;1710545;82;21047;-79
2022/08/13 09:55:24;;;;;;;8.35;4.17;;;;;;;27.90;43.92;98618.03;1697180;84;21116;-81
2022/08/13 09:58:00;;;;;;;7.80;4.15;;;;;;;27.99;43.97;98614.88;1720337;83;21055;-80
2022/08/13 10:00:31;;;;;;;7.42;4.30;;;;;;;28.13;43.64;98622.78;1713058;83;21055;-81
2022/08/13 10:03:02;;;;;;;7.45;3.92;;;;;;;28.22;43.56;98616.98;1711784;83;20997;-81
2022/08/13 10:05:34;;;;;;;6.33;4.20;;;;;;;28.36;42.82;98615.83;1721669;83;21037;-80
2022/08/13 10:08:05;;;;;;;8.53;5.05;;;;;;;28.40;42.39;98612.84;1705438;83;21509;-81
2022/08/13 10:10:34;;;;;;;7.37;4.10;;;;;;;28.52;42.25;98610.22;1700472;83;21009;-81
2022/08/13 10:13:01;;;;;;;7.67;4.70;;;;;;;28.48;41.82;98607.00;1712930;83;21072;-81
2022/08/13 10:15:29;;;;;;;6.67;4.20;;;;;;;28.54;41.36;98604.20;1741369;80;20987;-81
2022/08/13 10:17:58;;;;;;;7.50;4.08;;;;;;;28.53;40.25;98597.16;1720869;81;20986;-82
2022/08/13 10:20:39;;;;;;;7.50;4.62;;;;;;;28.55;40.75;98600.51;1723277;81;20993;-82
2022/08/13 10:23:10;;;;;;;6.45;4.20;;;;;;;28.54;40.37;98590.83;1697952;82;21060;-82
2022/08/13 10:25:37;;;;;;;8.20;4.08;;;;;;;28.62;40.91;98594.02;1724382;83;21043;-82
2022/08/13 10:28:28;;;;;;;5.47;3.58;;;;;;;28.80;40.89;98589.84;1714570;83;20992;-82
2022/08/13 10:30:55;;;;;;;6.25;3.62;;;;;;;28.94;40.41;98580.63;1719085;82;21025;-81
2022/08/13 10:33:23;;;;;;;4.92;3.27;;;;;;;29.11;40.32;98576.14;1713089;83;21017;-81
2022/08/13 10:35:52;;;;;;;6.00;3.20;;;;;;;29.29;39.42;98577.27;1728510;83;21043;-82
2022/08/13 10:38:25;;;;;;;5.00;3.52;;;;;;;29.37;38.62;98577.76;1713647;83;21506;-82
2022/08/13 10:40:48;;;;;;;4.80;2.70;;;;;;;29.51;38.83;98562.31;1720543;83;21065;-82
2022/08/13 10:43:16;;;;;;;7.47;3.02;;;;;;;29.74;38.01;98563.77;1715733;83;21547;-81
2022/08/13 10:45:45;;;;;;;3.80;2.80;;;;;;;29.90;37.50;98562.00;1729813;83;21083;-83
2022/08/13 10:48:13;;;;;;;4.05;2.80;;;;;;;30.07;37.14;98555.55;1723279;83;21026;-83
2022/08/13 10:50:41;;;;;;;4.17;2.72;;;;;;;30.19;36.47;98557.32;1733926;83;21121;-83
2022/08/13 10:53:08;;;;;;;4.15;2.92;;;;;;;30.34;36.19;98557.41;1732362;83;21014;-83
2022/08/13 10:55:35;;;;;;;6.33;3.35;;;;;;;30.47;35.94;98559.51;1734490;83;21005;-83
2022/08/13 10:58:13;;;;;;;5.28;3.10;;;;;;;30.56;35.40;98551.73;1734628;83;20974;-83
2022/08/13 11:00:31;;;;;;;4.25;2.47;;;;;;;30.65;34.99;98553.84;1729496;83;20990;-83
2022/08/13 11:02:58;;;;;;;4.87;2.55;;;;;;;30.77;34.90;98548.88;1733579;83;21022;-85
2022/08/13 11:05:26;;;;;;;3.70;2.60;;;;;;;30.84;33.78;98553.82;1737104;83;21034;-84
2022/08/13 11:07:53;;;;;;;4.35;2.60;;;;;;;30.86;33.61;98552.65;1735262;83;21016;-85
2022/08/13 11:10:21;;;;;;;3.90;2.50;;;;;;;30.91;33.97;98542.73;1690845;85;21106;-84
2022/08/13 11:12:52;;;;;;;4.90;2.67;;;;;;;31.05;33.17;98545.94;1732475;83;21053;-85
2022/08/13 11:15:22;;;;;;;4.50;2.62;;;;;;;31.19;33.36;98544.80;1690941;84;21013;-84
2022/08/13 11:17:50;;;;;;;7.87;2.80;;;;;;;31.26;31.51;98537.69;1734827;83;21024;-84
2022/08/13 11:20:19;;;;;;;4.20;2.58;;;;;;;31.27;33.26;98536.66;1736718;83;21053;-84
2022/08/13 11:22:52;;;;;;;4.80;2.50;;;;;;;31.42;32.61;98528.61;1738656;81;21536;-84
2022/08/13 11:25:19;;;;;;;3.47;2.25;;;;;;;31.48;31.00;98527.38;1745341;81;21003;-85
2022/08/13 11:27:46;;;;;;;3.70;2.20;;;;;;;31.46;31.68;98526.73;1771015;81;20995;-84
2022/08/13 11:30:16;;;;;;;3.20;2.25;;;;;;;31.48;30.87;98519.84;1737599;83;21043;-83
2022/08/13 11:32:43;;;;;;;4.03;2.50;;;;;;;31.50;30.39;98519.97;1722935;83;21055;-85
2022/08/13 11:35:12;;;;;;;5.60;3.30;;;;;;;31.54;30.90;98515.58;1723049;83;21043;-85
2022/08/13 11:37:38;;;;;;;4.50;2.58;;;;;;;31.77;30.83;98506.84;1761890;81;21095;-84
2022/08/13 11:40:06;;;;;;;6.62;3.05;;;;;;;31.91;30.59;98505.99;1766410;81;21010;-85
2022/08/13 11:42:33;;;;;;;8.15;2.72;;;;;;;32.16;30.79;98502.96;1771726;81;21011;-84
2022/08/13 11:45:00;;;;;;;6.25;2.95;;;;;;;32.23;30.63;98506.56;1737876;83;21480;-85
2022/08/13 11:47:26;;;;;;;5.05;2.75;;;;;;;32.37;30.94;98501.28;1737999;83;20987;-85
2022/08/13 11:49:53;;;;;;;4.25;2.70;;;;;;;32.39;29.39;98503.27;1707120;84;21596;-85
2022/08/13 11:52:20;;;;;;;6.00;2.65;;;;;;;32.36;30.06;98502.33;1704531;84;21101;-85
2022/08/13 11:54:46;;;;;;;4.92;2.80;;;;;;;32.52;30.23;98496.66;1664675;84;21014;-85
2022/08/13 11:57:13;;;;;;;4.08;2.17;;;;;;;32.71;30.08;98503.28;1683504;85;21062;-85
2022/08/13 11:59:40;;;;;;;3.58;2.22;;;;;;;32.91;29.14;98489.96;1718050;83;20992;-85
2022/08/13 12:02:07;;;;;;;4.67;2.77;;;;;;;33.07;27.87;98492.86;1723357;83;20993;-85